NCAR-RAP Real-Time Weather Data

Output produced by METARs form (18 August 2018  01:02 UTC)
found at http://weather.rap.ucar.edu/surface/
 
RJSS 180000Z 23005KT 200V260 9999 FEW025 SCT040 BKN/// 21/13 Q1013
RJSS 172300Z 23006KT 180V250 9999 FEW020 BKN/// 21/14 Q1013
RJSS 172200Z 23003KT 200V280 9999 FEW020 BKN/// 19/14 Q1013
RJSS 172100Z 36003KT 320V030 9999 FEW020 BKN/// 18/13 Q1013
RJSS 172030Z VRB02KT 9999 FEW030 BKN/// 15/13 Q1012 RMK 1CU030 A2991
RJSS 171200Z 26004KT 9999 FEW040 19/12 Q1011
RJSS 171100Z 32004KT 9999 FEW040 19/13 Q1010
RJSS 171000Z 32009KT 9999 FEW040 21/12 Q1010
RJSS 170900Z 31014KT 280V340 9999 FEW040 SCT070 22/12 Q1009
RJSS 170800Z 31012KT 290V350 9999 FEW030 SCT050 22/12 Q1008
RJSS 170700Z 33014KT 9999 FEW030 SCT050 BKN070 24/12 Q1008
RJSS 170604Z 30016G26KT 9999 FEW030 SCT050 24/12 Q1007 RMK 1CU030 3CU050 A2974
RJSS 170600Z 31015KT 9999 FEW030 SCT050 24/12 Q1007
RJSS 170505Z 30018G28KT 9999 FEW030 SCT080 23/13 Q1007 RMK 1CU030 4AC080 A2974
RJSS 170500Z 30020KT 9999 FEW030 SCT080 23/12 Q1007
RJSS 170400Z 30017KT 9999 FEW030 24/14 Q1007
RJSS 170311Z 29023G33KT 9999 FEW020 SCT040 22/13 Q1007 RMK 1CU020 3CU040 A2974
RJSS 170300Z 29022KT 9999 FEW020 SCT040 24/13 Q1006
RJSS 170200Z 30022G33KT 9999 FEW020 SCT100 23/13 Q1006
RJSS 170103Z 30021G34KT 9999 FEW020 23/14 Q1006 RMK 1CU020 A2971
RJSS 170100Z 31021KT 9999 FEW020 23/13 Q1006
RJSS 170008Z 29020G32KT 9999 FEW030 23/14 Q1005 RMK 2CU030 A2970
RJSS 170000Z 30021KT 9999 FEW030 22/14 Q1005
RJSS 162344Z 29020G31KT 9999 FEW030 23/14 Q1005 RMK 2CU030 A2968
RJSS 162300Z 30020KT 9999 FEW030 22/13 Q1005
RJSS 162239Z 29019G29KT 9999 FEW030 22/12 Q1004 RMK 1CU030 A2967
RJSS 162200Z 29014KT 9999 FEW020 22/12 Q1005
RJSS 162103Z 29019G29KT 9999 SCT020 21/12 Q1004 RMK 3CU020 A2966
RJSS 162100Z 29020KT 9999 SCT020 21/12 Q1004
RJSS 162030Z 29014KT 9999 FEW020 SCT/// 21/12 Q1004 RMK 2CU020 A2966
RJSS 161200Z 26007KT 9999 FEW030 SCT050 BKN070 24/20 Q1003
RJSS 161100Z 21007KT 9999 FEW050 SCT070 BKN120 25/20 Q1002
RJSS 161000Z 21009KT 9999 FEW020 SCT050 BKN120 25/20 Q1002
RJSS 160900Z 20006KT 160V220 9999 FEW010 SCT050 BKN070 25/20 Q1001
RJSS 160800Z VRB04KT 9999 FEW005 SCT050 BKN120 26/20 Q1001
RJSS 160700Z 15004KT 120V180 9999 FEW003 SCT050 BKN160 25/24 Q1000
RJSS 160600Z 20006KT 9999 FEW003 SCT008 BKN010 24/23 Q1000
RJSS 160500Z 32008KT 290V350 9999 -SHRA FEW003 SCT008 BKN010 FEW020CB 23/23 Q1001
RJSS 160449Z 29005KT 8000 -TSRA FEW005 SCT010 BKN020 FEW020CB 23/23 Q1002 RMK 1ST005 4ST010 6CU020 1CB020 A2959 FBL TS 10KM E MOV E
RJSS 160440Z VRB03KT 5000 R27/1400VP2000U TSRA BR FEW005 BKN010 BKN020 FEW020CB 23/22 Q1000 RMK 1ST005 5ST010 6CU020 1CB020 A2956 FBL TS 10KM E MOV E
RJSS 160432Z 15005KT 100V180 3000 R27/1500VP2000N +TSRA BR FEW005 BKN010 BKN020 FEW020CB 23/22 Q1000 RMK 1ST005 6ST010 7CU020 1CB020 A2954 MOD TURB OBS AT 0410Z 35NM N OF RJSS 12000FT IN DES A320 FBL TS 10KM E MOV E P/FR
RJSS 160425Z 14004KT 070V180 3000 R27/2000N TSRA BR FEW005 BKN010 BKN020 FEW020CB 23/22 Q1001 RMK 1ST005 6ST010 7CU020 1CB020 A2958 FBL TS 10KM E MOV E
RJSS 160419Z 11005KT 070V150 4000 R27/0400VP2000U TSRA BR FEW005 BKN010 BKN020 FEW020CB 23/22 Q1001 RMK 1ST005 6ST010 7CU020 2CB020 A2957 FBL TS OHD MOV E
RJSS 160410Z 01008KT 310V100 1200 R27/0350VP2000D +TSRA BR FEW008 SCT010 BKN020 SCT020CB 23/22 Q1001 RMK 1ST008 4ST010 6CU020 3CB020 A2958 FBL TS OHD MOV E RI++
RJSS 160408Z 36007KT 310V090 1000 R27/0350VP2000D +TSRA BR FEW008 SCT010 BKN020 SCT020CB 23/22 Q1001 RMK 1ST008 4ST010 6CU020 3CB020 A2958 FBL TS OHD MOV E RI++
RJSS 160405Z 36008KT 310V070 1000 R27/P2000N +TSRA BR FEW008 SCT010 BKN020 SCT020CB 24/22 Q1002 RMK 1ST008 4ST010 6CU020 3CB020 A2960 FBL TS OHD MOV E RI++
RJSS 160400Z 04006KT 330V070 3000 TSRA BR FEW008 SCT010 BKN020 FEW020CB 24/22 Q1001
RJSS 160300Z 04004KT 360V070 9999 FEW010 SCT025 BKN030 25/22 Q1002
RJSS 160200Z 05004KT 9999 -SHRA FEW005 SCT030 BKN040 25/22 Q1004
RJSS 160100Z 03006KT 9999 -SHRA FEW005 BKN040 BKN050 25/22 Q1004
RJSS 160000Z 04009KT 9999 FEW005 BKN040 BKN080 25/22 Q1004
RJSS 152300Z 03007KT 9999 -SHRA FEW005 BKN040 23/22 Q1005
RJSS 152200Z 36008KT 9999 FEW005 SCT015 BKN080 26/25 Q1005
RJSS 152100Z 22003KT 190V300 9999 FEW010 SCT030 BKN150 26/24 Q1004
RJSS 152030Z 19006KT 9999 -SHRA FEW015 SCT050 BKN130 26/24 Q1004 RMK 1ST015 3CU050 6AC130 A2967